Meteo Giornale » Osservazioni meteo Italia » Ronchi Dei Legionari

ore: 03:20 - Osservazioni Meteo Ronchi Dei Legionari
Lat. 45° 49' N Lon. 13° 29' E Alt. 12 metri s.l.m.

nuvoloso Europe/Rome

11 °C

Nuvoloso

Temp. 24 Ore

6 °C

23 °C

Est/Sud-Est

7.4 Km/h

Dew point 9 °C

Umidità 87 %

Visibilità  10 Km

Il sole sorge alle ore 05:38

Il sole tramonta alle ore 20:26

Data e Ora Cielo e Fenomeni T °C DP °C Um. % Pres. hPa Vis. km Vento km/h
Oggi h: 03:20 nuvoloso Nuvoloso 11 9 87 1017 10 E/SE 7.4
Oggi h: 02:50 poco_nuvoloso Poco Nuvoloso 11 9 87 1017 10 E/SE 7.4
Oggi h: 02:20 nuvoloso Nuvoloso 11 9 87 1017 10 E/SE 9.3
Oggi h: 01:50 nuvoloso Nuvoloso 11 9 87 1018 10 E/SE 9.3
Oggi h: 01:20 sereno Sereno 11 9 87 1018 10 E/SE 9.3
Oggi h: 00:50 sereno Sereno 13 10 81 1018 10 N 5.5
Oggi h: 00:20 sereno Sereno 12 10 87 1018 10 N 1.8
Ieri h: 23:50 molto_nuvoloso Molto Nuvoloso 13 10 81 1018 10 N 3.7
Ieri h: 23:20 sereno Sereno 14 10 76 1018 10 E/SE 7.4
Ieri h: 22:50 sereno Sereno 15 10 72 1018 10 E/SE 9.3
Ieri h: 22:20 sereno Sereno 16 10 67 1018 10 E/SE 7.4
Ieri h: 21:50 sereno Sereno 16 10 67 1017 10 N 5.5
Ieri h: 21:20 sereno Sereno 17 11 67 1017 10 N 5.5
Ieri h: 20:50 sereno Sereno 17 10 63 1017 10 N 5.5
Ieri h: 20:20 sereno Sereno 19 11 59 1017 10 SO 9.3
Ieri h: 19:50 sereno Sereno 21 10 49 1017 10 N 5.5
Ieri h: 19:20 sereno Sereno 22 11 49 1017 10 N 5.5
Ieri h: 18:50 sereno Sereno 23 10 43 1017 10 N 5.5
Ieri h: 18:20 sereno Sereno 23 10 43 1017 10 N 5.5
Ieri h: 17:50 sereno Sereno 23 9 40 1017 10 SO 7.4
Ieri h: 17:20 sereno Sereno 22 9 43 1018 10 O/SO 11.1
Ieri h: 16:50 sereno Sereno 23 9 40 1018 10 O/SO 13
Ieri h: 16:20 sereno Sereno 23 9 40 1018 10 O/SO 13
Ieri h: 15:50 sereno Sereno 23 10 43 1018 10 SO 7.4
Ieri h: 15:20 sereno Sereno 23 8 38 1018 10 O 7.4
Ieri h: 14:50 sereno Sereno 23 9 40 1019 10 N 5.5
Ieri h: 14:20 sereno Sereno 22 7 37 1019 10 N 3.7
Ieri h: 13:50 sereno Sereno 22 8 40 1019 10 N 5.5
Ieri h: 13:20 sereno Sereno 22 8 40 1019 10 N 3.7
Ieri h: 12:50 sereno Sereno 22 8 40 1020 10 N 5.5
Ieri h: 12:20 sereno Sereno 21 7 40 1020 10 O 7.4
Ieri h: 11:50 sereno Sereno 21 7 40 1020 10 N 3.7
Ieri h: 11:20 sereno Sereno 20 8 45 1020 10 N 7.4
Ieri h: 10:50 sereno Sereno 20 7 42 1020 10 N 5.5
Ieri h: 10:20 sereno Sereno 19 8 48 1020 10 N 3.7
Ieri h: 09:50 sereno Sereno 18 9 55 1020 10 N 3.7
Ieri h: 09:20 sereno Sereno 17 7 51 1020 10 N 3.7
Ieri h: 08:50 sereno Sereno 16 8 58 1020 10 N 3.7
Ieri h: 08:20 sereno Sereno 14 7 62 1020 10 N 1.8
Ieri h: 07:50 sereno Sereno 13 8 71 1020 10 N 1.8
Ieri h: 07:20 sereno Sereno 10 7 81 1020 10 N 1.8
Ieri h: 06:50 sereno Sereno 9 7 87 1020 10 N 1.8
Ieri h: 06:20 sereno Sereno 7 6 93 1020 10 N 3.7
Ieri h: 05:50 sereno Sereno 6 5 93 1020 10 N 5.5
Ieri h: 05:20 sereno Sereno 6 6 100 1020 10 N 1.8
Ieri h: 04:50 sereno Sereno 6 6 100 1020 10 N 5.5
Ieri h: 04:20 sereno Sereno 7 6 93 1020 10 N 1.8
Ieri h: 03:50 sereno Sereno 7 6 93 1020 10 N 3.7